MET'MAP v2.0
soon released !

Expected late october,
this new version will be
more efficient, smarter,
and hosted on a brand new
server x3 powerfull...
...and still free !


Not compatible ?
Try the mobile version !

LOG IN : | Subscribe | Disclaimer | Who is Orbifly ? |
ICAO code :

TAF - EKVD Kolding Vamdrup Airport - 17 Feb 2020 19:06 UTC - Data Source NOAA   


- Airport Elevation : 143 ft
- IATA code : VDP
- No reported NOTAMs.


EKVD - Kolding Vamdrup Airport

Latest METAR recorded : 2015/08/11 07:50 EKVD 110750Z 18006KT 140V210 9999 FEW010 BKN280 19/15 Q1017
Expired Forecast.

Source NOAA


MET'MAP, your aeronautical weather chart ! - Copyright ORBIFLY December 2007

Programming & Development : Alexandra Zaïnal
Co-Developer : Marc-Olivier Méhu
Technical & hardware support : Manuel Goepfert
Concept & Financing : Baudouin d'Aumeries